Time;durP1;ratioP1;P1;durP2;ratioP2;P2;SDS_P1;SDS_P2;PMS_P1;PMS_P2;Temp;Humidity;BMP_temperature;BMP_pressure;BME280_temperature;BME280_humidity;BME280_pressure;Samples;Min_cycle;Max_cycle;Signal;HPM_P1;HPM_P2
2023/01/14 00:01:22;;;;;;;25.23;3.72;;;;;;;7.75;73.51;101270.84;3605426;39;20588;-62
2023/01/14 00:03:48;;;;;;;15.02;4.35;;;;;;;7.56;73.76;101241.34;3608450;39;20425;-62
2023/01/14 00:06:19;;;;;;;27.40;7.85;;;;;;;7.70;73.90;101271.97;3605165;39;20659;-62
2023/01/14 00:08:45;;;;;;;26.73;7.68;;;;;;;7.67;73.48;101281.91;3606942;39;20051;-62
2023/01/14 00:11:14;;;;;;;25.88;4.50;;;;;;;7.64;73.36;101287.38;3607934;39;20066;-62
2023/01/14 00:13:41;;;;;;;18.30;3.58;;;;;;;7.25;74.06;101223.03;3608977;39;20059;-62
2023/01/14 00:16:13;;;;;;;20.23;4.03;;;;;;;7.60;73.76;101279.53;3606361;39;20289;-62
2023/01/14 00:18:40;;;;;;;21.08;4.13;;;;;;;7.58;73.55;101289.41;3606943;39;20051;-62
2023/01/14 00:21:14;;;;;;;19.27;3.70;;;;;;;7.56;74.16;101281.47;3605158;39;20418;-64
2023/01/14 00:23:41;;;;;;;17.60;3.63;;;;;;;7.54;74.11;101280.66;3606793;39;20061;-61
2023/01/14 00:26:14;;;;;;;20.63;3.90;;;;;;;7.47;73.97;101271.16;3606669;39;20046;-61
2023/01/14 00:28:44;;;;;;;21.15;4.10;;;;;;;7.45;74.45;101273.00;3607007;39;20054;-62
2023/01/14 00:31:18;;;;;;;21.52;4.85;;;;;;;7.48;74.51;101272.88;3605628;39;20405;-62
2023/01/14 00:33:45;;;;;;;19.42;3.78;;;;;;;7.43;74.51;101254.38;3605525;39;20132;-62
2023/01/14 00:36:15;;;;;;;19.55;5.00;;;;;;;7.52;74.83;101258.47;3606135;39;20043;-62
2023/01/14 00:38:42;;;;;;;19.52;3.70;;;;;;;7.52;74.70;101263.81;3608266;39;20054;-62
2023/01/14 00:41:11;;;;;;;22.35;4.82;;;;;;;7.35;74.64;101236.88;3605962;39;20359;-63
2023/01/14 00:43:40;;;;;;;18.60;4.32;;;;;;;7.53;74.38;101259.31;3606791;39;20051;-61
2023/01/14 00:46:11;;;;;;;15.82;4.13;;;;;;;7.52;75.05;101266.50;3606953;39;20061;-63
2023/01/14 00:48:38;;;;;;;27.40;4.78;;;;;;;7.48;74.96;101272.88;3604242;39;20099;-61
2023/01/14 00:51:05;;;;;;;20.15;4.53;;;;;;;7.40;75.15;101265.19;3604580;39;20062;-62
2023/01/14 00:53:32;;;;;;;23.25;4.88;;;;;;;7.44;75.78;101287.31;3605283;39;20063;-60
2023/01/14 00:55:58;;;;;;;27.55;4.68;;;;;;;7.39;75.85;101274.16;3603925;39;20058;-62
2023/01/14 00:58:24;;;;;;;23.15;3.50;;;;;;;7.35;76.71;101272.53;3605015;39;20051;-61
2023/01/14 01:00:53;;;;;;;28.83;4.97;;;;;;;7.13;76.21;101229.75;3611440;39;20066;-61
2023/01/14 01:03:20;;;;;;;24.60;5.00;;;;;;;7.41;76.64;101272.25;3605753;39;20370;-62
2023/01/14 01:05:47;;;;;;;20.00;4.28;;;;;;;7.41;76.11;101271.41;3603716;39;20349;-64
2023/01/14 01:08:21;;;;;;;25.25;5.38;;;;;;;7.31;76.23;101272.72;3606147;39;20061;-62
2023/01/14 01:10:51;;;;;;;25.27;4.72;;;;;;;7.25;76.58;101257.78;3606825;39;20062;-64
2023/01/14 01:13:17;;;;;;;25.08;4.60;;;;;;;7.23;76.55;101262.34;3608757;39;20052;-62
2023/01/14 01:15:44;;;;;;;27.75;5.25;;;;;;;7.34;77.17;101285.97;3609568;39;20394;-62
2023/01/14 01:18:12;;;;;;;25.02;4.80;;;;;;;7.34;76.52;101286.84;3607441;39;20054;-62
2023/01/14 01:20:38;;;;;;;23.75;4.88;;;;;;;7.34;76.58;101291.31;3607136;39;20055;-62
2023/01/14 01:23:08;;;;;;;28.80;5.13;;;;;;;7.32;76.99;101282.47;3605951;39;20050;-61
2023/01/14 01:25:34;;;;;;;26.48;4.95;;;;;;;7.27;77.61;101279.13;3607019;39;20051;-63
2023/01/14 01:28:00;;;;;;;22.90;4.55;;;;;;;7.28;77.37;101280.88;3610479;39;20061;-62
2023/01/14 01:30:26;;;;;;;28.63;5.00;;;;;;;7.30;77.18;101284.38;3607855;39;20063;-63
2023/01/14 01:32:54;;;;;;;29.35;4.90;;;;;;;7.01;76.85;101242.75;3607772;39;20047;-62
2023/01/14 01:35:21;;;;;;;22.83;4.68;;;;;;;7.27;77.33;101277.34;3608089;39;20051;-62
2023/01/14 01:37:47;;;;;;;25.73;4.60;;;;;;;7.22;76.98;101274.81;3607659;39;20081;-62
2023/01/14 01:40:13;;;;;;;23.02;4.93;;;;;;;7.25;77.51;101276.50;3605679;39;20325;-61
2023/01/14 01:42:54;;;;;;;24.40;4.97;;;;;;;7.20;77.64;101279.38;3609279;39;20059;-63
2023/01/14 01:45:41;;;;;;;26.77;5.03;;;;;;;7.20;78.00;101284.72;3611095;39;20476;-62
2023/01/14 01:48:17;;;;;;;29.23;4.97;;;;;;;7.17;77.75;101275.97;3604457;39;20051;-62
2023/01/14 01:50:50;;;;;;;28.65;4.53;;;;;;;7.20;78.21;101279.38;3605898;39;20074;-62
2023/01/14 01:53:17;;;;;;;28.13;4.93;;;;;;;7.20;78.21;101282.06;3605124;39;20067;-62
2023/01/14 01:55:52;;;;;;;31.80;5.25;;;;;;;7.17;77.87;101279.50;3610185;39;20292;-62
2023/01/14 01:58:21;;;;;;;29.60;4.78;;;;;;;6.98;77.57;101246.44;3607388;39;20104;-64
2023/01/14 02:00:47;;;;;;;26.25;4.95;;;;;;;7.16;77.57;101282.22;3609906;39;20055;-62
2023/01/14 02:03:25;;;;;;;34.58;5.72;;;;;;;7.16;77.97;101272.41;3604482;39;20120;-62
2023/01/14 02:05:52;;;;;;;28.98;4.93;;;;;;;7.14;77.51;101268.94;3594837;39;20070;-64
2023/01/14 02:08:18;;;;;;;25.98;4.30;;;;;;;7.10;78.10;101259.28;3608389;39;20058;-62
2023/01/14 02:11:12;;;;;;;30.65;5.65;;;;;;;7.09;77.88;101257.53;3606121;39;20051;-62
2023/01/14 02:14:15;;;;;;;25.90;4.82;;;;;;;7.07;78.86;101253.19;3606584;39;20406;-63
2023/01/14 02:17:13;;;;;;;26.13;4.07;;;;;;;7.05;78.78;101253.28;3607431;39;20099;-63
2023/01/14 02:20:07;;;;;;;28.55;5.20;;;;;;;7.03;78.76;101231.06;3608002;39;20119;-62
2023/01/14 02:22:42;;;;;;;28.87;5.17;;;;;;;7.01;78.93;101227.59;3608144;39;20446;-62
2023/01/14 02:25:25;;;;;;;25.75;4.72;;;;;;;7.00;78.72;101217.81;3606430;39;20280;-62
2023/01/14 02:27:59;;;;;;;20.70;4.63;;;;;;;7.00;78.99;101201.78;3605658;39;20313;-62
2023/01/14 02:31:11;;;;;;;28.38;4.78;;;;;;;6.97;79.52;101197.44;3607518;39;20047;-62
2023/01/14 02:33:51;;;;;;;29.85;5.38;;;;;;;6.95;78.96;101191.31;3593923;39;20062;-61
2023/01/14 02:36:50;;;;;;;27.95;5.35;;;;;;;6.96;79.22;101185.00;3608556;39;20055;-62
2023/01/14 02:39:33;;;;;;;28.70;5.07;;;;;;;6.93;79.80;101177.13;3609774;39;20107;-61
2023/01/14 02:45:34;;;;;;;27.88;5.53;;;;;;;6.95;79.40;101171.72;3606522;39;20342;-62
2023/01/14 02:48:05;;;;;;;28.88;5.00;;;;;;;6.96;79.90;101168.97;3602759;39;20087;-62
2023/01/14 02:50:35;;;;;;;24.25;4.75;;;;;;;6.98;79.94;101166.25;3607681;39;20063;-62
2023/01/14 02:53:17;;;;;;;23.13;4.30;;;;;;;6.97;79.92;101175.19;3607145;39;20050;-62
2023/01/14 02:55:43;;;;;;;28.67;4.90;;;;;;;7.01;79.37;101171.47;3606224;39;20047;-63
2023/01/14 02:58:43;;;;;;;29.60;5.38;;;;;;;7.02;80.17;101165.19;3605125;39;20266;-62
2023/01/14 03:01:33;;;;;;;29.52;4.50;;;;;;;7.01;79.55;101163.47;3605269;39;20127;-62
2023/01/14 03:05:08;;;;;;;28.90;4.78;;;;;;;7.03;80.28;101164.25;3606014;39;20048;-62
2023/01/14 03:08:26;;;;;;;26.35;5.75;;;;;;;7.02;80.10;101157.16;3601382;39;20457;-62
2023/01/14 03:11:04;;;;;;;28.27;5.20;;;;;;;7.03;79.40;101153.56;3568169;39;20385;-62
2023/01/14 03:14:03;;;;;;;28.63;4.90;;;;;;;7.02;79.17;101151.81;3607148;39;20051;-62
2023/01/14 03:16:51;;;;;;;32.35;4.80;;;;;;;7.03;79.46;101142.00;3605731;39;20086;-63
2023/01/14 03:19:34;;;;;;;22.50;4.53;;;;;;;7.00;79.63;101137.63;3606555;39;20078;-63
2023/01/14 03:22:05;;;;;;;30.75;4.60;;;;;;;6.99;80.03;101125.22;3605203;39;20127;-63
2023/01/14 03:24:43;;;;;;;20.95;3.75;;;;;;;6.99;80.21;101125.22;3606159;39;20094;-63
2023/01/14 03:27:23;;;;;;;24.40;4.97;;;;;;;7.04;79.94;101123.25;3604266;39;20110;-63
2023/01/14 03:30:06;;;;;;;26.73;4.78;;;;;;;7.08;80.22;101132.84;3605533;39;20070;-63
2023/01/14 03:32:59;;;;;;;26.92;4.28;;;;;;;7.12;79.87;101120.22;3606080;39;20058;-62
2023/01/14 03:35:33;;;;;;;19.52;4.13;;;;;;;7.10;80.71;101119.41;3606213;39;20286;-65
2023/01/14 03:38:22;;;;;;;21.85;4.25;;;;;;;7.16;79.97;101120.00;3604672;39;20043;-63
2023/01/14 03:40:54;;;;;;;20.70;4.00;;;;;;;7.19;80.63;101125.22;3607526;39;20242;-63
2023/01/14 03:43:54;;;;;;;24.27;4.70;;;;;;;7.24;80.40;101125.03;3607953;39;20225;-62
2023/01/14 03:46:19;;;;;;;22.10;4.28;;;;;;;7.28;80.04;101125.78;3596378;39;20055;-62
2023/01/14 03:48:45;;;;;;;29.50;4.32;;;;;;;7.32;79.87;101122.03;3605746;39;20079;-62
2023/01/14 03:51:29;;;;;;;23.55;3.97;;;;;;;7.31;79.91;101112.28;3605993;39;20070;-62
2023/01/14 03:54:14;;;;;;;;;;;;;;;7.35;79.74;101106.72;3604849;39;20059;-62
2023/01/14 03:57:01;;;;;;;17.58;3.50;;;;;;;7.36;79.66;101096.91;3604256;39;19932;-62
2023/01/14 03:59:42;;;;;;;23.98;4.85;;;;;;;7.38;79.59;101100.38;3603989;39;20057;-62
2023/01/14 04:02:11;;;;;;;23.33;4.22;;;;;;;7.39;79.57;101094.97;3605166;39;20057;-63
2023/01/14 04:04:41;;;;;;;21.95;3.85;;;;;;;7.36;79.34;101099.59;3603896;39;20055;-64
2023/01/14 04:07:08;;;;;;;22.75;3.72;;;;;;;7.29;79.13;101068.69;3606506;39;20051;-63
2023/01/14 04:09:33;;;;;;;23.05;4.32;;;;;;;7.36;79.00;101086.22;3596813;39;20394;-62
2023/01/14 04:11:59;;;;;;;20.83;3.70;;;;;;;7.38;80.27;101071.81;3603930;39;20062;-62
2023/01/14 04:17:08;;;;;;;;;;;;;;;7.40;79.07;101061.06;3607749;39;20066;-62
2023/01/14 04:19:34;;;;;;;21.30;3.78;;;;;;;7.36;79.23;101049.63;3604853;39;19935;-61
2023/01/14 04:21:59;;;;;;;18.90;3.72;;;;;;;7.36;79.37;101054.13;3604037;39;20043;-62
2023/01/14 04:24:25;;;;;;;28.73;4.20;;;;;;;7.36;79.63;101043.44;3604873;39;20470;-62
2023/01/14 04:26:50;;;;;;;23.50;3.53;;;;;;;7.32;79.82;101039.13;3604282;39;20087;-61
2023/01/14 04:29:16;;;;;;;21.50;3.67;;;;;;;7.26;79.66;101021.56;3602531;39;20051;-62
2023/01/14 04:31:41;;;;;;;23.15;4.45;;;;;;;7.31;79.32;101018.69;3605590;39;20047;-62
2023/01/14 04:34:09;;;;;;;26.33;4.10;;;;;;;7.27;80.10;101030.47;3604878;39;20050;-62
2023/01/14 04:36:34;;;;;;;27.02;4.22;;;;;;;7.23;79.78;101021.72;3605855;39;20051;-62
2023/01/14 04:39:00;;;;;;;26.65;4.93;;;;;;;7.20;80.03;101028.06;3603182;39;20057;-62
2023/01/14 04:44:10;;;;;;;21.20;3.90;;;;;;;7.13;79.91;101010.53;3610253;39;20062;-62
2023/01/14 04:46:35;;;;;;;27.98;5.35;;;;;;;7.13;79.60;101012.34;3607755;39;20055;-64
2023/01/14 04:49:01;;;;;;;19.00;4.03;;;;;;;7.13;79.62;101009.69;3605344;39;20055;-62
2023/01/14 04:51:27;;;;;;;20.58;4.18;;;;;;;7.12;79.59;101019.50;3602787;39;20059;-62
2023/01/14 04:53:54;;;;;;;20.52;3.28;;;;;;;7.08;80.38;101012.56;3606899;39;20047;-62
2023/01/14 04:56:19;;;;;;;19.40;3.53;;;;;;;7.08;80.33;101012.56;3603078;39;20108;-62
2023/01/14 04:58:45;;;;;;;18.45;3.78;;;;;;;7.10;80.13;101010.66;3608976;39;20039;-62
2023/01/14 05:01:11;;;;;;;20.17;3.63;;;;;;;7.10;79.48;100999.97;3603430;39;20059;-62
2023/01/14 05:03:37;;;;;;;24.88;3.83;;;;;;;7.11;79.99;100988.38;3603156;39;20082;-62
2023/01/14 05:06:04;;;;;;;20.15;3.53;;;;;;;7.08;79.14;100983.16;3605818;39;20115;-62
2023/01/14 05:08:30;;;;;;;20.63;5.03;;;;;;;7.11;79.47;100983.03;3606873;39;20139;-62
2023/01/14 05:10:55;;;;;;;16.17;3.63;;;;;;;7.11;79.69;100972.34;3604023;39;20059;-61
2023/01/14 05:13:21;;;;;;;19.58;3.50;;;;;;;7.15;79.93;100975.75;3610081;39;20055;-62
2023/01/14 05:15:46;;;;;;;18.63;4.20;;;;;;;7.16;79.26;100967.63;3605684;39;20427;-62
2023/01/14 05:18:15;;;;;;;15.98;3.38;;;;;;;7.17;79.23;100960.50;3603698;39;20074;-62
2023/01/14 05:20:44;;;;;;;22.00;4.43;;;;;;;7.20;79.78;100957.69;3604700;39;20127;-62
2023/01/14 05:23:16;;;;;;;17.30;2.97;;;;;;;7.15;79.81;100949.88;3603918;39;20063;-63
2023/01/14 05:25:43;;;;;;;23.13;4.35;;;;;;;7.24;79.81;100940.56;3605721;39;20063;-63
2023/01/14 05:28:15;;;;;;;23.52;3.78;;;;;;;7.27;79.02;100942.22;3606009;39;20083;-63
2023/01/14 05:30:41;;;;;;;15.52;3.42;;;;;;;7.29;78.53;100929.63;3604471;39;20079;-63
2023/01/14 05:33:08;;;;;;;17.70;3.28;;;;;;;7.32;79.07;100924.16;3605377;39;20128;-63
2023/01/14 05:35:34;;;;;;;21.63;4.00;;;;;;;7.33;78.50;100910.72;3605831;39;20074;-62
2023/01/14 05:38:00;;;;;;;15.95;4.00;;;;;;;7.29;78.74;100892.22;3605011;39;20123;-62
2023/01/14 05:40:25;;;;;;;22.13;4.25;;;;;;;7.41;78.07;100897.84;3604820;39;20059;-63
2023/01/14 05:45:41;;;;;;;19.15;3.60;;;;;;;7.46;78.26;100876.25;3605863;39;20099;-63
2023/01/14 05:48:10;;;;;;;20.23;3.50;;;;;;;7.51;77.93;100871.50;3601267;39;20164;-61
2023/01/14 05:50:38;;;;;;;27.23;4.05;;;;;;;7.52;77.47;100857.22;3606588;39;20051;-65
2023/01/14 05:53:06;;;;;;;13.45;3.78;;;;;;;7.56;77.46;100864.16;3605679;39;20301;-62
2023/01/14 05:55:32;;;;;;;21.45;3.63;;;;;;;7.56;77.96;100858.81;3605045;39;20051;-62
2023/01/14 05:58:00;;;;;;;11.82;2.53;;;;;;;7.61;77.53;100856.78;3605227;39;20095;-61
2023/01/14 06:06:21;;;;;;;18.20;4.07;;;;;;;7.69;76.84;100843.00;3606454;39;20046;-62
2023/01/14 06:08:52;;;;;;;15.02;3.13;;;;;;;7.67;76.38;100840.44;3605382;39;20046;-62
2023/01/14 06:11:22;;;;;;;18.90;3.67;;;;;;;7.67;76.42;100823.47;3605660;39;20767;-62
2023/01/14 06:13:55;;;;;;;20.42;4.13;;;;;;;7.73;76.64;100819.63;3608954;39;20047;-62
2023/01/14 06:16:21;;;;;;;16.40;3.55;;;;;;;7.71;77.06;100818.84;3609399;39;20119;-62
2023/01/14 06:18:47;;;;;;;17.67;4.03;;;;;;;7.74;76.55;100802.63;3608806;39;20055;-62
2023/01/14 06:21:17;;;;;;;14.95;3.08;;;;;;;7.77;76.95;100797.13;3605316;39;20389;-62
2023/01/14 06:23:45;;;;;;;19.35;3.70;;;;;;;7.76;77.44;100790.91;3611940;39;20058;-64
2023/01/14 06:26:15;;;;;;;18.02;3.25;;;;;;;7.76;77.27;100795.41;3599442;39;21536;-62
2023/01/14 06:28:40;;;;;;;16.00;3.88;;;;;;;7.76;77.55;100779.34;3607085;39;20065;-63
2023/01/14 06:31:18;;;;;;;22.08;3.53;;;;;;;7.75;77.71;100774.94;3603901;39;20104;-63
2023/01/14 06:33:45;;;;;;;14.13;2.90;;;;;;;7.74;78.48;100771.41;3606912;39;20128;-63
2023/01/14 06:36:14;;;;;;;22.13;3.75;;;;;;;7.77;78.54;100760.56;3608018;39;20192;-64
2023/01/14 06:38:40;;;;;;;21.15;4.05;;;;;;;7.76;78.90;100747.25;3606211;39;20569;-64
2023/01/14 06:41:10;;;;;;;17.02;3.58;;;;;;;7.78;78.45;100748.03;3603539;39;20050;-63
2023/01/14 06:43:37;;;;;;;18.55;3.97;;;;;;;7.18;79.38;100650.31;3604960;39;20059;-64
2023/01/14 06:46:03;;;;;;;15.93;2.92;;;;;;;7.76;78.82;100731.19;3603345;39;20124;-64
2023/01/14 06:48:29;;;;;;;14.52;2.85;;;;;;;7.74;79.26;100733.97;3605712;39;20131;-64
2023/01/14 06:50:55;;;;;;;17.65;3.55;;;;;;;7.74;80.08;100728.59;3606800;39;20394;-63
2023/01/14 06:53:23;;;;;;;13.82;2.95;;;;;;;7.77;79.90;100727.56;3606762;39;20058;-63
2023/01/14 06:55:48;;;;;;;12.35;2.83;;;;;;;7.77;80.39;100719.53;3610216;39;20582;-64
2023/01/14 06:58:15;;;;;;;12.55;3.03;;;;;;;7.78;81.33;100718.59;3603365;39;20095;-63
2023/01/14 07:00:42;;;;;;;18.65;3.55;;;;;;;7.74;80.99;100700.97;3604933;39;20069;-62
2023/01/14 07:03:07;;;;;;;18.38;3.50;;;;;;;7.76;81.60;100699.94;3606415;39;20059;-63
2023/01/14 07:05:33;;;;;;;15.02;3.08;;;;;;;7.77;82.46;100701.69;3606638;39;20385;-62
2023/01/14 07:07:59;;;;;;;13.43;2.95;;;;;;;7.76;82.56;100696.41;3605145;39;20091;-63
2023/01/14 07:10:24;;;;;;;18.88;3.70;;;;;;;7.76;82.62;100680.34;3603103;39;20066;-62
2023/01/14 07:12:51;;;;;;;15.75;2.65;;;;;;;7.75;83.46;100675.94;3607653;39;20055;-61
2023/01/14 07:15:21;;;;;;;21.40;3.58;;;;;;;7.72;83.58;100678.78;3606999;39;20046;-61
2023/01/14 07:17:49;;;;;;;13.32;2.97;;;;;;;7.51;83.85;100622.78;3604048;39;20512;-63
2023/01/14 07:20:16;;;;;;;10.90;2.92;;;;;;;7.70;83.80;100640.53;3606157;39;20309;-65
2023/01/14 07:22:41;;;;;;;19.38;3.63;;;;;;;7.72;84.97;100636.84;3603860;39;20042;-66
2023/01/14 07:25:09;;;;;;;14.38;3.05;;;;;;;7.62;84.51;100617.75;3610243;39;20073;-65
2023/01/14 07:27:35;;;;;;;13.35;3.13;;;;;;;7.64;84.94;100610.50;3608169;39;20066;-67
2023/01/14 07:30:00;;;;;;;11.68;2.85;;;;;;;7.73;84.28;100630.53;3609598;39;20467;-66
2023/01/14 07:32:27;;;;;;;15.98;3.45;;;;;;;7.66;84.61;100607.72;3609911;39;20055;-66
2023/01/14 07:34:52;;;;;;;13.15;2.80;;;;;;;7.70;84.69;100624.47;3610922;39;20130;-65
2023/01/14 07:37:18;;;;;;;18.23;3.63;;;;;;;7.72;84.80;100614.56;3608762;39;20063;-65
2023/01/14 07:39:44;;;;;;;14.82;3.40;;;;;;;7.70;85.43;100603.09;3605191;39;20313;-65
2023/01/14 07:42:10;;;;;;;13.15;2.95;;;;;;;7.72;85.54;100606.56;3607936;39;20496;-65
2023/01/14 07:44:36;;;;;;;10.13;2.85;;;;;;;7.73;86.29;100597.56;3607830;39;20179;-63
2023/01/14 07:47:02;;;;;;;16.77;3.28;;;;;;;7.74;85.83;100577.88;3607609;39;20389;-63
2023/01/14 07:49:28;;;;;;;13.85;3.38;;;;;;;7.74;85.90;100583.22;3603849;39;20087;-63
2023/01/14 07:51:53;;;;;;;9.77;3.00;;;;;;;7.77;87.01;100572.38;3606211;39;20420;-63
2023/01/14 07:54:19;;;;;;;11.50;2.80;;;;;;;7.77;86.79;100556.31;3604660;39;20065;-63
2023/01/14 07:56:47;;;;;;;14.82;3.30;;;;;;;7.79;86.84;100557.09;3612089;39;20050;-64
2023/01/14 07:59:13;;;;;;;9.27;2.90;;;;;;;7.78;87.08;100531.31;3611203;39;20082;-64
2023/01/14 08:01:39;;;;;;;9.30;2.80;;;;;;;7.84;87.50;100530.97;3609306;39;20278;-64
2023/01/14 08:04:05;;;;;;;10.38;2.30;;;;;;;7.87;86.94;100530.81;3608840;39;20397;-64
2023/01/14 08:06:32;;;;;;;9.93;2.85;;;;;;;7.90;86.38;100509.22;3599764;39;20050;-65
2023/01/14 08:09:02;;;;;;;9.40;2.58;;;;;;;7.88;87.12;100511.09;3604943;39;20051;-64
2023/01/14 08:11:29;;;;;;;12.50;2.70;;;;;;;7.91;87.09;100492.22;3604252;39;20043;-64
2023/01/14 08:13:55;;;;;;;7.57;2.70;;;;;;;7.93;86.81;100490.31;3606252;39;20405;-64
2023/01/14 08:16:21;;;;;;;10.98;2.90;;;;;;;7.96;87.57;100482.13;3603395;39;20058;-64
2023/01/14 08:18:48;;;;;;;6.32;2.20;;;;;;;7.98;87.63;100473.97;3605211;39;20124;-64
2023/01/14 08:21:15;;;;;;;4.18;1.90;;;;;;;7.15;87.09;100335.06;3604273;39;20070;-64
2023/01/14 08:23:40;;;;;;;7.32;1.85;;;;;;;8.02;86.88;100452.28;3602471;39;20061;-63
2023/01/14 08:26:11;;;;;;;6.88;1.88;;;;;;;8.08;87.48;100457.28;3604970;39;20074;-63
2023/01/14 08:28:39;;;;;;;6.80;2.40;;;;;;;8.11;87.02;100443.75;3605229;39;20490;-63
2023/01/14 08:31:11;;;;;;;7.07;2.03;;;;;;;8.12;86.74;100428.56;3603535;39;20452;-64
2023/01/14 08:33:37;;;;;;;5.82;2.40;;;;;;;8.12;87.21;100429.41;3605160;39;20396;-64
2023/01/14 08:36:11;;;;;;;4.72;2.05;;;;;;;8.16;87.31;100411.38;3608109;39;20063;-64
2023/01/14 08:38:40;;;;;;;8.73;1.88;;;;;;;8.08;86.61;100392.19;3604509;39;20070;-64
2023/01/14 08:41:13;;;;;;;3.53;1.40;;;;;;;8.19;86.72;100392.44;3605612;39;20067;-63
2023/01/14 08:43:42;;;;;;;9.98;2.08;;;;;;;8.22;86.48;100386.91;3606440;39;20066;-64
2023/01/14 08:46:10;;;;;;;7.38;1.48;;;;;;;8.22;87.14;100376.19;3604137;39;20413;-63
2023/01/14 08:48:36;;;;;;;7.35;2.85;;;;;;;8.29;87.18;100379.38;3595353;39;20089;-64
2023/01/14 08:51:07;;;;;;;8.13;1.73;;;;;;;8.30;86.97;100373.06;3605206;39;20066;-64
2023/01/14 08:53:36;;;;;;;8.57;1.58;;;;;;;8.31;86.84;100366.75;3607676;39;20058;-63
2023/01/14 08:56:04;;;;;;;4.13;1.48;;;;;;;8.36;87.20;100357.47;3604091;39;20048;-64
2023/01/14 08:58:31;;;;;;;2.78;1.38;;;;;;;8.37;86.80;100347.63;3607902;39;20063;-64
2023/01/14 09:01:01;;;;;;;6.18;1.67;;;;;;;8.40;86.69;100341.25;3604493;39;20085;-63
2023/01/14 09:03:30;;;;;;;7.60;2.13;;;;;;;8.40;86.80;100334.06;3604700;39;20158;-64
2023/01/14 09:06:01;;;;;;;6.18;1.88;;;;;;;8.42;86.26;100328.66;3604223;39;20039;-63
2023/01/14 09:17:11;;;;;;;6.53;1.95;;;;;;;8.46;87.00;100306.91;3605263;39;20139;-63
2023/01/14 09:19:56;;;;;;;10.25;1.77;;;;;;;8.48;86.62;100291.63;3605025;39;20067;-63
2023/01/14 09:22:27;;;;;;;4.97;1.70;;;;;;;8.48;86.87;100278.22;3606345;39;20065;-63
2023/01/14 09:24:53;;;;;;;7.90;1.77;;;;;;;8.52;87.65;100279.75;3605348;39;20306;-65
2023/01/14 09:27:20;;;;;;;6.25;1.63;;;;;;;8.52;87.17;100271.72;3603666;39;20065;-65
2023/01/14 09:29:46;;;;;;;8.07;2.13;;;;;;;8.49;87.74;100250.47;3604174;39;20062;-64
2023/01/14 09:32:15;;;;;;;4.90;1.80;;;;;;;8.59;87.13;100257.00;3605518;39;20051;-63
2023/01/14 09:34:48;;;;;;;4.90;1.50;;;;;;;8.62;87.59;100250.56;3606433;39;20094;-63
2023/01/14 09:37:16;;;;;;;4.18;1.67;;;;;;;8.68;87.49;100241.28;3606846;39;20087;-63
2023/01/14 09:39:41;;;;;;;5.30;1.60;;;;;;;8.69;87.56;100235.84;3609054;39;20047;-63
2023/01/14 09:42:29;;;;;;;5.90;1.73;;;;;;;8.73;87.36;100228.47;3609117;39;20058;-64
2023/01/14 09:45:22;;;;;;;8.13;1.90;;;;;;;8.76;87.97;100209.53;3611028;39;20081;-64
2023/01/14 09:47:48;;;;;;;7.25;1.83;;;;;;;8.74;87.15;100198.88;3599607;39;20055;-64
2023/01/14 09:50:28;;;;;;;15.02;6.32;;;;;;;8.70;87.55;100188.47;3604348;39;20302;-63
2023/01/14 09:53:51;;;;;;;9.52;2.92;;;;;;;8.79;87.37;100196.78;3608154;39;20087;-64
2023/01/14 09:56:24;;;;;;;8.95;2.08;;;;;;;8.82;88.29;100207.31;3604381;39;20047;-64
2023/01/14 09:59:01;;;;;;;7.00;1.92;;;;;;;8.78;87.91;100202.22;3604194;39;20058;-63
2023/01/14 10:01:48;;;;;;;8.38;2.38;;;;;;;8.85;87.66;100192.84;3608768;39;20302;-64
2023/01/14 10:04:42;;;;;;;6.28;1.77;;;;;;;8.91;88.43;100187.09;3605994;39;20094;-64
2023/01/14 10:07:13;;;;;;;7.32;1.80;;;;;;;8.94;87.68;100175.28;3606441;39;20062;-64
2023/01/14 10:09:58;;;;;;;6.43;1.83;;;;;;;8.96;88.44;100160.84;3607796;39;20055;-64
2023/01/14 10:12:46;;;;;;;6.43;2.13;;;;;;;8.98;88.21;100163.44;3603752;39;20126;-64
2023/01/14 10:15:17;;;;;;;8.27;1.90;;;;;;;9.00;89.08;100132.84;3604351;39;20063;-65
2023/01/14 10:17:54;;;;;;;7.90;2.20;;;;;;;8.72;88.57;100076.69;3606022;39;20420;-66
2023/01/14 10:20:37;;;;;;;7.32;2.03;;;;;;;8.78;88.26;100074.44;3606771;39;20328;-65
2023/01/14 10:23:16;;;;;;;5.87;2.10;;;;;;;9.07;88.13;100095.81;3603765;39;20060;-67
2023/01/14 10:25:50;;;;;;;10.02;2.67;;;;;;;9.19;87.84;100110.19;3607518;39;20305;-64
2023/01/14 10:28:21;;;;;;;5.05;1.50;;;;;;;9.23;88.04;100100.97;3604895;39;20282;-66
2023/01/14 10:30:50;;;;;;;11.52;2.92;;;;;;;9.25;88.18;100082.94;3596842;39;20088;-65
2023/01/14 10:33:20;;;;;;;6.75;1.85;;;;;;;9.34;87.64;100086.84;3605518;39;20436;-64
2023/01/14 10:36:05;;;;;;;4.22;1.80;;;;;;;9.34;88.12;100086.84;3605424;39;20047;-66
2023/01/14 10:38:31;;;;;;;3.88;1.30;;;;;;;9.39;88.18;100072.16;3605768;39;20095;-67
2023/01/14 10:41:06;;;;;;;8.73;1.98;;;;;;;9.43;87.88;100070.97;3607276;39;20055;-66
2023/01/14 10:43:42;;;;;;;7.10;1.80;;;;;;;9.45;88.36;100042.22;3604667;39;20058;-66
2023/01/14 10:46:17;;;;;;;7.22;1.63;;;;;;;9.47;87.96;100050.13;3606344;39;20047;-66
2023/01/14 10:49:05;;;;;;;5.82;1.50;;;;;;;9.29;88.12;100012.03;3605083;39;20056;-65
2023/01/14 10:51:47;;;;;;;5.20;1.45;;;;;;;9.58;88.37;100030.59;3608508;39;20051;-65
2023/01/14 10:54:27;;;;;;;4.70;1.30;;;;;;;9.58;88.23;100020.75;3608861;39;20397;-65
2023/01/14 10:57:06;;;;;;;5.72;1.52;;;;;;;9.57;88.52;100036.94;3607567;39;20051;-66
2023/01/14 10:59:49;;;;;;;4.25;1.50;;;;;;;9.60;88.43;100013.44;3604805;39;20059;-66
2023/01/14 11:02:39;;;;;;;6.13;1.10;;;;;;;9.65;87.86;100000.56;3606443;39;20054;-66
2023/01/14 11:05:34;;;;;;;5.57;1.60;;;;;;;9.62;87.96;99984.66;3607985;39;20287;-66
2023/01/14 11:08:25;;;;;;;3.70;1.02;;;;;;;9.71;88.20;99972.44;3605473;39;20374;-68
2023/01/14 11:11:11;;;;;;;2.95;1.10;;;;;;;9.73;88.10;99965.97;3606175;39;20052;-67
2023/01/14 11:13:44;;;;;;;5.38;1.05;;;;;;;9.77;87.85;99958.56;3604913;39;20069;-66
2023/01/14 11:16:21;;;;;;;6.15;0.98;;;;;;;9.80;88.34;99960.16;3607046;39;20043;-67
2023/01/14 11:19:15;;;;;;;5.13;1.30;;;;;;;9.81;88.49;99957.38;3606542;39;20058;-67
2023/01/14 11:21:45;;;;;;;4.30;1.63;;;;;;;9.83;88.04;99939.34;3606630;39;20482;-66
2023/01/14 11:24:29;;;;;;;2.78;1.05;;;;;;;9.86;88.36;99962.38;3602621;39;20640;-66
2023/01/14 11:27:20;;;;;;;2.20;0.90;;;;;;;9.86;87.91;99922.97;3604370;39;20372;-69
2023/01/14 11:29:58;;;;;;;2.35;0.82;;;;;;;9.90;88.17;99950.47;3606372;39;20055;-67
2023/01/14 11:32:33;;;;;;;2.45;0.80;;;;;;;9.95;87.17;99922.31;3604669;39;20091;-68
2023/01/14 11:35:29;;;;;;;4.20;1.20;;;;;;;9.95;86.94;99916.94;3605188;39;20104;-68
2023/01/14 11:37:56;;;;;;;2.97;0.90;;;;;;;9.95;86.88;99899.97;3606544;39;20055;-68
2023/01/14 11:43:59;;;;;;;2.33;0.70;;;;;;;9.89;87.26;99879.81;3605463;39;20402;-66
2023/01/14 11:46:25;;;;;;;2.78;0.90;;;;;;;9.99;86.92;99886.22;3605647;39;20054;-68
2023/01/14 11:49:21;;;;;;;3.60;1.38;;;;;;;10.03;86.76;99897.59;3601331;39;20672;-66
2023/01/14 11:52:00;;;;;;;4.00;0.88;;;;;;;10.03;86.94;99880.63;3601910;39;20066;-65
2023/01/14 11:54:39;;;;;;;7.22;4.40;;;;;;;10.04;87.43;99883.19;3603136;39;20101;-66
2023/01/14 11:57:15;;;;;;;1.73;0.73;;;;;;;10.03;87.08;99869.88;3604780;39;21761;-65
2023/01/14 11:59:43;;;;;;;2.42;0.93;;;;;;;10.02;87.09;99873.53;3604544;39;20404;-65
2023/01/14 12:02:35;;;;;;;2.90;0.82;;;;;;;10.03;87.93;99859.16;3602269;39;20059;-66
2023/01/14 12:05:16;;;;;;;2.25;0.95;;;;;;;10.03;87.75;99849.25;3604091;39;20054;-70
2023/01/14 12:07:47;;;;;;;2.58;0.85;;;;;;;10.05;87.92;99846.44;3604547;39;20063;-68
2023/01/14 12:10:31;;;;;;;2.55;0.90;;;;;;;10.07;88.06;99841.81;3603626;39;20056;-68
2023/01/14 12:19:14;;;;;;;1.88;0.90;;;;;;;10.07;87.71;99818.50;3608018;39;20120;-67
2023/01/14 12:21:56;;;;;;;2.53;0.75;;;;;;;10.11;88.38;99811.06;3602076;39;20917;-69
2023/01/14 12:25:10;;;;;;;1.15;0.70;;;;;;;10.10;88.57;99793.25;3603843;39;20287;-67
2023/01/14 12:27:55;;;;;;;1.60;0.82;;;;;;;9.87;87.70;99744.03;3603183;39;20089;-68
2023/01/14 12:30:35;;;;;;;2.55;1.55;;;;;;;10.10;87.97;99771.78;3603260;39;20127;-68
2023/01/14 12:33:08;;;;;;;0.93;0.90;;;;;;;10.12;88.13;99762.63;3602401;39;20088;-69